sensor_id;sensor_type;location;lat;lon;timestamp;P1;durP1;ratioP1;P2;durP2;ratioP2
76589;SDS011;65471;55.908;37.880;2024-03-23T00:56:20;60.25;;;24.13;;
76589;SDS011;65471;55.908;37.880;2024-03-23T00:58:46;49.28;;;22.48;;
76589;SDS011;65471;55.908;37.880;2024-03-23T01:01:12;47.15;;;21.10;;
76589;SDS011;65471;55.908;37.880;2024-03-23T01:03:38;66.70;;;25.70;;
76589;SDS011;65471;55.908;37.880;2024-03-23T01:06:04;56.47;;;24.70;;
76589;SDS011;65471;55.908;37.880;2024-03-23T01:08:30;53.25;;;24.08;;
76589;SDS011;65471;55.908;37.880;2024-03-23T01:10:56;60.00;;;24.88;;
76589;SDS011;65471;55.908;37.880;2024-03-23T01:13:23;57.78;;;24.98;;
76589;SDS011;65471;55.908;37.880;2024-03-23T01:15:50;64.95;;;26.95;;
76589;SDS011;65471;55.908;37.880;2024-03-23T01:18:20;52.72;;;24.23;;
76589;SDS011;65471;55.908;37.880;2024-03-23T01:20:48;60.10;;;26.60;;
76589;SDS011;65471;55.908;37.880;2024-03-23T01:23:14;54.17;;;25.00;;
76589;SDS011;65471;55.908;37.880;2024-03-23T01:25:40;64.00;;;26.13;;
76589;SDS011;65471;55.908;37.880;2024-03-23T01:28:06;56.85;;;26.73;;
76589;SDS011;65471;55.908;37.880;2024-03-23T01:30:33;66.32;;;25.58;;
76589;SDS011;65471;55.908;37.880;2024-03-23T01:33:00;66.60;;;26.88;;
76589;SDS011;65471;55.908;37.880;2024-03-23T01:35:28;76.20;;;28.73;;
76589;SDS011;65471;55.908;37.880;2024-03-23T01:37:54;62.55;;;26.85;;
76589;SDS011;65471;55.908;37.880;2024-03-23T01:40:20;76.30;;;28.05;;
76589;SDS011;65471;55.908;37.880;2024-03-23T01:42:56;63.45;;;26.10;;
76589;SDS011;65471;55.908;37.880;2024-03-23T01:45:22;63.30;;;26.77;;
76589;SDS011;65471;55.908;37.880;2024-03-23T01:47:49;63.55;;;26.50;;
76589;SDS011;65471;55.908;37.880;2024-03-23T01:52:43;75.03;;;27.45;;
76589;SDS011;65471;55.908;37.880;2024-03-23T01:55:10;63.22;;;27.15;;
76589;SDS011;65471;55.908;37.880;2024-03-23T01:57:36;76.43;;;28.80;;
76589;SDS011;65471;55.908;37.880;2024-03-23T02:00:02;73.35;;;29.08;;
76589;SDS011;65471;55.908;37.880;2024-03-23T02:02:31;67.13;;;28.85;;
76589;SDS011;65471;55.908;37.880;2024-03-23T02:04:57;84.60;;;28.65;;
76589;SDS011;65471;55.908;37.880;2024-03-23T02:07:24;65.25;;;27.73;;
76589;SDS011;65471;55.908;37.880;2024-03-23T02:09:50;68.70;;;29.17;;
76589;SDS011;65471;55.908;37.880;2024-03-23T02:12:17;66.45;;;27.33;;
76589;SDS011;65471;55.908;37.880;2024-03-23T02:14:43;73.13;;;29.23;;
76589;SDS011;65471;55.908;37.880;2024-03-23T02:17:09;55.30;;;26.98;;
76589;SDS011;65471;55.908;37.880;2024-03-23T02:19:35;76.85;;;29.17;;
76589;SDS011;65471;55.908;37.880;2024-03-23T02:22:01;77.97;;;30.02;;
76589;SDS011;65471;55.908;37.880;2024-03-23T02:24:29;69.43;;;29.67;;
76589;SDS011;65471;55.908;37.880;2024-03-23T02:26:55;69.05;;;28.63;;
76589;SDS011;65471;55.908;37.880;2024-03-23T02:29:20;74.97;;;31.15;;
76589;SDS011;65471;55.908;37.880;2024-03-23T02:31:46;61.40;;;26.98;;
76589;SDS011;65471;55.908;37.880;2024-03-23T02:34:12;66.72;;;27.17;;
76589;SDS011;65471;55.908;37.880;2024-03-23T02:36:38;74.22;;;29.75;;
76589;SDS011;65471;55.908;37.880;2024-03-23T02:39:04;71.28;;;29.02;;
76589;SDS011;65471;55.908;37.880;2024-03-23T02:41:30;68.90;;;28.42;;
76589;SDS011;65471;55.908;37.880;2024-03-23T02:43:56;80.57;;;29.42;;
76589;SDS011;65471;55.908;37.880;2024-03-23T02:46:22;73.70;;;28.42;;
76589;SDS011;65471;55.908;37.880;2024-03-23T02:48:51;75.30;;;30.42;;
76589;SDS011;65471;55.908;37.880;2024-03-23T02:51:17;72.13;;;28.52;;
76589;SDS011;65471;55.908;37.880;2024-03-23T02:53:42;64.55;;;28.38;;
76589;SDS011;65471;55.908;37.880;2024-03-23T02:56:08;92.80;;;32.42;;
76589;SDS011;65471;55.908;37.880;2024-03-23T02:58:34;77.00;;;30.13;;
76589;SDS011;65471;55.908;37.880;2024-03-23T03:01:00;79.35;;;29.95;;
76589;SDS011;65471;55.908;37.880;2024-03-23T03:03:26;84.22;;;33.13;;
76589;SDS011;65471;55.908;37.880;2024-03-23T03:05:55;79.20;;;31.10;;
76589;SDS011;65471;55.908;37.880;2024-03-23T03:08:22;81.47;;;30.33;;
76589;SDS011;65471;55.908;37.880;2024-03-23T03:10:47;80.88;;;30.38;;
76589;SDS011;65471;55.908;37.880;2024-03-23T03:13:13;79.82;;;32.58;;
76589;SDS011;65471;55.908;37.880;2024-03-23T03:15:43;80.00;;;29.33;;
76589;SDS011;65471;55.908;37.880;2024-03-23T03:18:09;73.20;;;29.00;;
76589;SDS011;65471;55.908;37.880;2024-03-23T03:20:41;81.10;;;29.52;;
76589;SDS011;65471;55.908;37.880;2024-03-23T03:23:07;73.32;;;29.75;;
76589;SDS011;65471;55.908;37.880;2024-03-23T03:25:33;70.95;;;29.20;;
76589;SDS011;65471;55.908;37.880;2024-03-23T03:27:59;75.18;;;31.35;;
76589;SDS011;65471;55.908;37.880;2024-03-23T03:30:25;70.70;;;27.73;;
76589;SDS011;65471;55.908;37.880;2024-03-23T03:32:54;60.50;;;26.33;;
76589;SDS011;65471;55.908;37.880;2024-03-23T03:35:20;65.03;;;26.50;;
76589;SDS011;65471;55.908;37.880;2024-03-23T03:37:46;63.83;;;26.83;;
76589;SDS011;65471;55.908;37.880;2024-03-23T03:40:12;64.32;;;25.08;;
76589;SDS011;65471;55.908;37.880;2024-03-23T03:42:40;67.88;;;27.23;;
76589;SDS011;65471;55.908;37.880;2024-03-23T03:45:07;71.28;;;29.42;;
76589;SDS011;65471;55.908;37.880;2024-03-23T03:47:33;59.03;;;25.10;;
76589;SDS011;65471;55.908;37.880;2024-03-23T03:49:59;58.75;;;24.05;;
76589;SDS011;65471;55.908;37.880;2024-03-23T03:52:25;45.58;;;21.80;;
76589;SDS011;65471;55.908;37.880;2024-03-23T03:54:55;61.65;;;25.77;;
76589;SDS011;65471;55.908;37.880;2024-03-23T03:57:29;74.07;;;28.67;;
76589;SDS011;65471;55.908;37.880;2024-03-23T03:59:55;53.30;;;23.67;;
76589;SDS011;65471;55.908;37.880;2024-03-23T04:02:21;66.60;;;27.30;;
76589;SDS011;65471;55.908;37.880;2024-03-23T04:04:47;55.50;;;25.02;;
76589;SDS011;65471;55.908;37.880;2024-03-23T04:07:13;73.82;;;29.33;;
76589;SDS011;65471;55.908;37.880;2024-03-23T04:09:39;60.72;;;26.10;;
76589;SDS011;65471;55.908;37.880;2024-03-23T04:12:05;69.82;;;29.27;;
76589;SDS011;65471;55.908;37.880;2024-03-23T04:14:32;70.53;;;28.75;;
76589;SDS011;65471;55.908;37.880;2024-03-23T04:16:57;68.35;;;26.27;;
76589;SDS011;65471;55.908;37.880;2024-03-23T04:19:23;61.17;;;26.75;;
76589;SDS011;65471;55.908;37.880;2024-03-23T04:21:49;59.53;;;23.63;;
76589;SDS011;65471;55.908;37.880;2024-03-23T04:24:15;60.72;;;25.25;;
76589;SDS011;65471;55.908;37.880;2024-03-23T04:26:41;78.07;;;29.48;;
76589;SDS011;65471;55.908;37.880;2024-03-23T04:29:07;56.85;;;23.42;;
76589;SDS011;65471;55.908;37.880;2024-03-23T04:31:33;45.38;;;19.85;;
76589;SDS011;65471;55.908;37.880;2024-03-23T04:34:00;63.33;;;27.02;;
76589;SDS011;65471;55.908;37.880;2024-03-23T04:36:27;50.80;;;23.25;;
76589;SDS011;65471;55.908;37.880;2024-03-23T04:38:53;62.65;;;27.67;;
76589;SDS011;65471;55.908;37.880;2024-03-23T04:41:18;63.60;;;26.55;;
76589;SDS011;65471;55.908;37.880;2024-03-23T04:43:45;55.85;;;23.63;;
76589;SDS011;65471;55.908;37.880;2024-03-23T04:46:11;71.45;;;27.83;;
76589;SDS011;65471;55.908;37.880;2024-03-23T04:48:37;53.65;;;24.38;;
76589;SDS011;65471;55.908;37.880;2024-03-23T04:51:03;48.35;;;20.52;;
76589;SDS011;65471;55.908;37.880;2024-03-23T04:53:29;59.38;;;25.58;;
76589;SDS011;65471;55.908;37.880;2024-03-23T04:55:55;55.35;;;25.65;;
76589;SDS011;65471;55.908;37.880;2024-03-23T04:58:22;54.60;;;23.55;;
76589;SDS011;65471;55.908;37.880;2024-03-23T05:00:58;78.95;;;28.10;;
76589;SDS011;65471;55.908;37.880;2024-03-23T05:03:24;64.97;;;27.13;;
76589;SDS011;65471;55.908;37.880;2024-03-23T05:05:50;72.43;;;26.98;;
76589;SDS011;65471;55.908;37.880;2024-03-23T05:08:16;60.20;;;26.23;;
76589;SDS011;65471;55.908;37.880;2024-03-23T05:10:42;65.32;;;27.50;;
76589;SDS011;65471;55.908;37.880;2024-03-23T05:13:09;53.28;;;23.40;;
76589;SDS011;65471;55.908;37.880;2024-03-23T05:15:35;63.95;;;27.00;;
76589;SDS011;65471;55.908;37.880;2024-03-23T05:18:01;60.20;;;24.05;;
76589;SDS011;65471;55.908;37.880;2024-03-23T05:20:27;50.15;;;21.70;;
76589;SDS011;65471;55.908;37.880;2024-03-23T05:22:54;56.50;;;25.67;;
76589;SDS011;65471;55.908;37.880;2024-03-23T05:25:21;54.88;;;24.17;;
76589;SDS011;65471;55.908;37.880;2024-03-23T05:27:47;56.95;;;24.60;;
76589;SDS011;65471;55.908;37.880;2024-03-23T05:30:13;65.88;;;26.40;;
76589;SDS011;65471;55.908;37.880;2024-03-23T05:32:39;69.25;;;25.95;;
76589;SDS011;65471;55.908;37.880;2024-03-23T05:35:07;57.90;;;25.25;;
76589;SDS011;65471;55.908;37.880;2024-03-23T05:37:34;63.33;;;24.77;;
76589;SDS011;65471;55.908;37.880;2024-03-23T05:40:01;67.88;;;27.48;;
76589;SDS011;65471;55.908;37.880;2024-03-23T05:44:55;46.10;;;19.75;;
76589;SDS011;65471;55.908;37.880;2024-03-23T05:47:21;66.68;;;23.90;;
76589;SDS011;65471;55.908;37.880;2024-03-23T05:49:47;54.03;;;24.83;;
76589;SDS011;65471;55.908;37.880;2024-03-23T05:52:13;58.83;;;23.02;;
76589;SDS011;65471;55.908;37.880;2024-03-23T05:54:39;55.47;;;24.25;;
76589;SDS011;65471;55.908;37.880;2024-03-23T05:57:05;59.58;;;24.20;;
76589;SDS011;65471;55.908;37.880;2024-03-23T05:59:34;60.78;;;24.40;;
76589;SDS011;65471;55.908;37.880;2024-03-23T06:02:00;62.55;;;24.58;;
76589;SDS011;65471;55.908;37.880;2024-03-23T06:04:26;54.55;;;22.65;;
76589;SDS011;65471;55.908;37.880;2024-03-23T06:06:52;45.63;;;21.88;;
76589;SDS011;65471;55.908;37.880;2024-03-23T06:09:18;57.78;;;25.58;;
76589;SDS011;65471;55.908;37.880;2024-03-23T06:11:45;55.42;;;23.67;;
76589;SDS011;65471;55.908;37.880;2024-03-23T06:14:12;50.38;;;23.50;;
76589;SDS011;65471;55.908;37.880;2024-03-23T06:16:37;55.95;;;24.60;;
76589;SDS011;65471;55.908;37.880;2024-03-23T06:19:03;49.35;;;22.85;;
76589;SDS011;65471;55.908;37.880;2024-03-23T06:21:32;54.92;;;23.73;;
76589;SDS011;65471;55.908;37.880;2024-03-23T06:23:59;41.72;;;19.98;;
76589;SDS011;65471;55.908;37.880;2024-03-23T06:26:25;48.55;;;21.92;;
76589;SDS011;65471;55.908;37.880;2024-03-23T06:28:51;53.78;;;22.83;;
76589;SDS011;65471;55.908;37.880;2024-03-23T06:31:17;42.53;;;20.58;;
76589;SDS011;65471;55.908;37.880;2024-03-23T06:33:43;48.83;;;20.67;;
76589;SDS011;65471;55.908;37.880;2024-03-23T06:36:10;50.08;;;22.63;;
76589;SDS011;65471;55.908;37.880;2024-03-23T06:38:37;52.05;;;22.73;;
76589;SDS011;65471;55.908;37.880;2024-03-23T06:41:06;53.20;;;22.40;;
76589;SDS011;65471;55.908;37.880;2024-03-23T06:43:32;43.85;;;18.92;;
76589;SDS011;65471;55.908;37.880;2024-03-23T06:45:58;47.25;;;20.70;;
76589;SDS011;65471;55.908;37.880;2024-03-23T06:48:24;41.03;;;20.15;;
76589;SDS011;65471;55.908;37.880;2024-03-23T06:50:54;44.58;;;21.45;;
76589;SDS011;65471;55.908;37.880;2024-03-23T06:53:21;42.22;;;17.60;;
76589;SDS011;65471;55.908;37.880;2024-03-23T06:55:51;30.52;;;14.95;;
76589;SDS011;65471;55.908;37.880;2024-03-23T06:58:21;39.25;;;17.92;;
76589;SDS011;65471;55.908;37.880;2024-03-23T07:00:48;36.83;;;17.40;;
76589;SDS011;65471;55.908;37.880;2024-03-23T07:03:14;41.20;;;19.33;;
76589;SDS011;65471;55.908;37.880;2024-03-23T07:05:42;39.10;;;21.30;;
76589;SDS011;65471;55.908;37.880;2024-03-23T07:08:08;42.78;;;21.95;;
76589;SDS011;65471;55.908;37.880;2024-03-23T07:10:34;43.40;;;21.40;;
76589;SDS011;65471;55.908;37.880;2024-03-23T07:13:01;42.53;;;19.90;;
76589;SDS011;65471;55.908;37.880;2024-03-23T07:15:27;36.15;;;18.15;;
76589;SDS011;65471;55.908;37.880;2024-03-23T07:17:53;38.33;;;19.08;;
76589;SDS011;65471;55.908;37.880;2024-03-23T07:20:19;35.17;;;19.20;;
76589;SDS011;65471;55.908;37.880;2024-03-23T07:22:45;33.80;;;17.33;;
76589;SDS011;65471;55.908;37.880;2024-03-23T07:25:13;32.72;;;17.92;;
76589;SDS011;65471;55.908;37.880;2024-03-23T07:27:39;38.72;;;17.52;;
76589;SDS011;65471;55.908;37.880;2024-03-23T07:30:05;35.38;;;19.10;;
76589;SDS011;65471;55.908;37.880;2024-03-23T07:32:32;26.95;;;15.25;;
76589;SDS011;65471;55.908;37.880;2024-03-23T07:34:58;26.98;;;16.23;;
76589;SDS011;65471;55.908;37.880;2024-03-23T07:37:24;31.20;;;16.77;;
76589;SDS011;65471;55.908;37.880;2024-03-23T07:39:51;12.50;;;9.88;;
76589;SDS011;65471;55.908;37.880;2024-03-23T07:42:17;22.92;;;13.60;;
76589;SDS011;65471;55.908;37.880;2024-03-23T07:44:43;35.40;;;16.20;;
76589;SDS011;65471;55.908;37.880;2024-03-23T07:47:09;23.48;;;12.70;;
76589;SDS011;65471;55.908;37.880;2024-03-23T07:49:35;25.67;;;14.15;;
76589;SDS011;65471;55.908;37.880;2024-03-23T07:52:01;31.75;;;15.45;;
76589;SDS011;65471;55.908;37.880;2024-03-23T07:54:27;25.83;;;13.73;;
76589;SDS011;65471;55.908;37.880;2024-03-23T07:56:53;26.60;;;14.68;;
76589;SDS011;65471;55.908;37.880;2024-03-23T07:59:19;22.95;;;14.45;;
76589;SDS011;65471;55.908;37.880;2024-03-23T08:01:45;26.98;;;15.35;;
76589;SDS011;65471;55.908;37.880;2024-03-23T08:04:11;24.48;;;14.55;;
76589;SDS011;65471;55.908;37.880;2024-03-23T08:06:37;18.40;;;12.18;;
76589;SDS011;65471;55.908;37.880;2024-03-23T08:09:03;19.15;;;12.82;;
76589;SDS011;65471;55.908;37.880;2024-03-23T08:11:30;25.65;;;15.05;;
76589;SDS011;65471;55.908;37.880;2024-03-23T08:13:56;22.52;;;15.30;;
76589;SDS011;65471;55.908;37.880;2024-03-23T08:16:23;23.17;;;14.45;;
76589;SDS011;65471;55.908;37.880;2024-03-23T08:18:53;25.90;;;14.82;;
76589;SDS011;65471;55.908;37.880;2024-03-23T08:21:21;24.05;;;13.77;;
76589;SDS011;65471;55.908;37.880;2024-03-23T08:23:47;26.00;;;14.00;;
76589;SDS011;65471;55.908;37.880;2024-03-23T08:26:14;28.30;;;15.43;;
76589;SDS011;65471;55.908;37.880;2024-03-23T08:28:41;18.98;;;13.52;;
76589;SDS011;65471;55.908;37.880;2024-03-23T08:31:07;13.35;;;8.48;;
76589;SDS011;65471;55.908;37.880;2024-03-23T08:33:34;23.52;;;14.95;;
76589;SDS011;65471;55.908;37.880;2024-03-23T08:36:02;19.92;;;13.45;;
76589;SDS011;65471;55.908;37.880;2024-03-23T08:38:28;25.92;;;14.73;;
76589;SDS011;65471;55.908;37.880;2024-03-23T08:43:31;21.27;;;14.05;;
76589;SDS011;65471;55.908;37.880;2024-03-23T08:48:31;17.33;;;11.73;;
76589;SDS011;65471;55.908;37.880;2024-03-23T08:51:02;17.52;;;10.18;;
76589;SDS011;65471;55.908;37.880;2024-03-23T08:53:32;21.90;;;13.98;;
76589;SDS011;65471;55.908;37.880;2024-03-23T08:55:59;19.70;;;13.73;;
76589;SDS011;65471;55.908;37.880;2024-03-23T08:58:26;19.98;;;13.68;;
76589;SDS011;65471;55.908;37.880;2024-03-23T09:00:54;22.10;;;12.45;;
76589;SDS011;65471;55.908;37.880;2024-03-23T09:03:24;33.22;;;14.73;;
76589;SDS011;65471;55.908;37.880;2024-03-23T09:05:51;25.70;;;13.35;;
76589;SDS011;65471;55.908;37.880;2024-03-23T09:08:18;22.45;;;11.77;;
76589;SDS011;65471;55.908;37.880;2024-03-23T09:10:45;18.80;;;13.30;;
76589;SDS011;65471;55.908;37.880;2024-03-23T09:13:11;22.42;;;12.98;;
76589;SDS011;65471;55.908;37.880;2024-03-23T09:15:37;20.83;;;13.35;;
76589;SDS011;65471;55.908;37.880;2024-03-23T09:18:11;21.10;;;12.73;;
76589;SDS011;65471;55.908;37.880;2024-03-23T09:20:37;12.48;;;10.27;;
76589;SDS011;65471;55.908;37.880;2024-03-23T09:23:03;24.80;;;12.45;;
76589;SDS011;65471;55.908;37.880;2024-03-23T09:25:29;19.00;;;11.38;;
76589;SDS011;65471;55.908;37.880;2024-03-23T09:27:54;18.45;;;12.40;;
76589;SDS011;65471;55.908;37.880;2024-03-23T09:30:20;15.55;;;12.43;;
76589;SDS011;65471;55.908;37.880;2024-03-23T09:32:46;16.67;;;11.18;;
76589;SDS011;65471;55.908;37.880;2024-03-23T09:35:12;18.90;;;12.05;;
76589;SDS011;65471;55.908;37.880;2024-03-23T09:37:38;29.60;;;14.10;;
76589;SDS011;65471;55.908;37.880;2024-03-23T09:40:10;20.25;;;13.25;;
76589;SDS011;65471;55.908;37.880;2024-03-23T09:42:37;20.92;;;12.77;;
76589;SDS011;65471;55.908;37.880;2024-03-23T09:45:08;25.30;;;13.88;;
76589;SDS011;65471;55.908;37.880;2024-03-23T09:50:09;13.25;;;10.18;;
76589;SDS011;65471;55.908;37.880;2024-03-23T09:52:35;17.75;;;12.13;;
76589;SDS011;65471;55.908;37.880;2024-03-23T09:55:01;24.20;;;12.80;;
76589;SDS011;65471;55.908;37.880;2024-03-23T09:57:29;23.43;;;13.27;;
76589;SDS011;65471;55.908;37.880;2024-03-23T09:59:55;14.82;;;11.65;;
76589;SDS011;65471;55.908;37.880;2024-03-23T10:02:23;16.67;;;10.97;;
76589;SDS011;65471;55.908;37.880;2024-03-23T10:04:50;23.77;;;13.30;;
76589;SDS011;65471;55.908;37.880;2024-03-23T10:07:18;18.45;;;11.73;;
76589;SDS011;65471;55.908;37.880;2024-03-23T10:09:45;23.45;;;12.15;;
76589;SDS011;65471;55.908;37.880;2024-03-23T10:12:18;19.13;;;12.63;;
76589;SDS011;65471;55.908;37.880;2024-03-23T10:14:44;16.23;;;12.15;;
76589;SDS011;65471;55.908;37.880;2024-03-23T10:17:20;16.23;;;10.32;;
76589;SDS011;65471;55.908;37.880;2024-03-23T10:19:51;16.27;;;10.52;;
76589;SDS011;65471;55.908;37.880;2024-03-23T10:22:22;11.50;;;10.27;;
76589;SDS011;65471;55.908;37.880;2024-03-23T10:24:49;22.63;;;12.30;;
76589;SDS011;65471;55.908;37.880;2024-03-23T10:27:18;18.80;;;12.57;;
76589;SDS011;65471;55.908;37.880;2024-03-23T10:29:46;18.60;;;13.00;;
76589;SDS011;65471;55.908;37.880;2024-03-23T10:32:13;19.45;;;13.18;;
76589;SDS011;65471;55.908;37.880;2024-03-23T10:34:40;16.75;;;13.05;;
76589;SDS011;65471;55.908;37.880;2024-03-23T10:37:07;18.00;;;12.52;;
76589;SDS011;65471;55.908;37.880;2024-03-23T10:39:37;14.13;;;9.25;;
76589;SDS011;65471;55.908;37.880;2024-03-23T10:42:05;18.38;;;12.32;;
76589;SDS011;65471;55.908;37.880;2024-03-23T10:44:36;18.60;;;10.77;;
76589;SDS011;65471;55.908;37.880;2024-03-23T10:47:02;17.58;;;12.13;;
76589;SDS011;65471;55.908;37.880;2024-03-23T10:49:33;19.17;;;12.25;;
76589;SDS011;65471;55.908;37.880;2024-03-23T10:52:02;21.50;;;12.50;;
76589;SDS011;65471;55.908;37.880;2024-03-23T10:54:29;19.10;;;13.03;;
76589;SDS011;65471;55.908;37.880;2024-03-23T10:57:09;19.70;;;11.77;;
76589;SDS011;65471;55.908;37.880;2024-03-23T10:59:39;24.83;;;11.88;;
76589;SDS011;65471;55.908;37.880;2024-03-23T11:02:05;18.40;;;12.02;;
76589;SDS011;65471;55.908;37.880;2024-03-23T11:04:34;17.00;;;11.23;;
76589;SDS011;65471;55.908;37.880;2024-03-23T11:07:47;18.35;;;12.02;;
76589;SDS011;65471;55.908;37.880;2024-03-23T11:09:57;17.67;;;11.65;;
76589;SDS011;65471;55.908;37.880;2024-03-23T11:12:25;17.73;;;10.50;;
76589;SDS011;65471;55.908;37.880;2024-03-23T11:18:06;24.98;;;13.93;;
76589;SDS011;65471;55.908;37.880;2024-03-23T11:20:37;15.02;;;10.43;;
76589;SDS011;65471;55.908;37.880;2024-03-23T11:23:04;14.48;;;11.18;;
76589;SDS011;65471;55.908;37.880;2024-03-23T11:25:30;17.13;;;11.40;;
76589;SDS011;65471;55.908;37.880;2024-03-23T11:27:57;16.27;;;10.07;;
76589;SDS011;65471;55.908;37.880;2024-03-23T11:30:34;16.17;;;10.03;;
76589;SDS011;65471;55.908;37.880;2024-03-23T11:33:00;24.05;;;13.00;;
76589;SDS011;65471;55.908;37.880;2024-03-23T11:35:31;21.73;;;12.85;;
76589;SDS011;65471;55.908;37.880;2024-03-23T11:38:09;16.50;;;12.68;;
76589;SDS011;65471;55.908;37.880;2024-03-23T11:40:40;23.25;;;12.90;;
76589;SDS011;65471;55.908;37.880;2024-03-23T11:43:16;22.30;;;12.40;;
76589;SDS011;65471;55.908;37.880;2024-03-23T11:45:44;28.63;;;12.98;;
76589;SDS011;65471;55.908;37.880;2024-03-23T11:48:12;18.35;;;11.40;;
76589;SDS011;65471;55.908;37.880;2024-03-23T11:50:45;20.98;;;13.63;;
76589;SDS011;65471;55.908;37.880;2024-03-23T11:53:13;22.42;;;11.55;;
76589;SDS011;65471;55.908;37.880;2024-03-23T11:58:15;18.52;;;11.55;;
76589;SDS011;65471;55.908;37.880;2024-03-23T12:00:56;17.73;;;12.38;;
76589;SDS011;65471;55.908;37.880;2024-03-23T12:03:23;18.95;;;12.52;;
76589;SDS011;65471;55.908;37.880;2024-03-23T12:06:00;22.83;;;11.80;;
76589;SDS011;65471;55.908;37.880;2024-03-23T12:08:31;20.08;;;11.25;;
76589;SDS011;65471;55.908;37.880;2024-03-23T12:11:15;22.92;;;13.23;;
76589;SDS011;65471;55.908;37.880;2024-03-23T12:13:42;21.15;;;13.85;;
76589;SDS011;65471;55.908;37.880;2024-03-23T12:16:13;25.23;;;13.70;;
76589;SDS011;65471;55.908;37.880;2024-03-23T12:18:47;25.67;;;14.10;;
76589;SDS011;65471;55.908;37.880;2024-03-23T12:21:17;23.75;;;14.02;;
76589;SDS011;65471;55.908;37.880;2024-03-23T12:23:44;21.95;;;14.43;;
76589;SDS011;65471;55.908;37.880;2024-03-23T12:26:12;24.00;;;14.90;;
76589;SDS011;65471;55.908;37.880;2024-03-23T12:28:38;29.05;;;15.25;;
76589;SDS011;65471;55.908;37.880;2024-03-23T12:31:04;26.75;;;14.23;;
76589;SDS011;65471;55.908;37.880;2024-03-23T12:33:33;23.17;;;14.15;;
76589;SDS011;65471;55.908;37.880;2024-03-23T12:35:59;18.30;;;13.00;;
76589;SDS011;65471;55.908;37.880;2024-03-23T12:38:25;28.63;;;14.88;;
76589;SDS011;65471;55.908;37.880;2024-03-23T12:40:51;27.77;;;15.75;;
76589;SDS011;65471;55.908;37.880;2024-03-23T12:43:17;24.48;;;14.02;;
76589;SDS011;65471;55.908;37.880;2024-03-23T12:45:47;18.25;;;11.52;;
76589;SDS011;65471;55.908;37.880;2024-03-23T12:48:14;25.90;;;14.43;;
76589;SDS011;65471;55.908;37.880;2024-03-23T12:50:40;25.08;;;13.65;;
76589;SDS011;65471;55.908;37.880;2024-03-23T12:53:06;25.25;;;13.10;;
76589;SDS011;65471;55.908;37.880;2024-03-23T12:55:32;20.20;;;13.50;;
76589;SDS011;65471;55.908;37.880;2024-03-23T12:58:00;19.67;;;13.15;;
76589;SDS011;65471;55.908;37.880;2024-03-23T13:00:26;20.40;;;13.48;;
76589;SDS011;65471;55.908;37.880;2024-03-23T13:02:52;16.00;;;11.80;;
76589;SDS011;65471;55.908;37.880;2024-03-23T13:05:18;24.17;;;14.70;;
76589;SDS011;65471;55.908;37.880;2024-03-23T13:07:43;23.42;;;14.02;;
76589;SDS011;65471;55.908;37.880;2024-03-23T13:10:09;17.63;;;12.82;;
76589;SDS011;65471;55.908;37.880;2024-03-23T13:12:36;20.75;;;13.80;;
76589;SDS011;65471;55.908;37.880;2024-03-23T13:15:02;26.33;;;15.85;;
76589;SDS011;65471;55.908;37.880;2024-03-23T13:17:32;22.83;;;13.80;;
76589;SDS011;65471;55.908;37.880;2024-03-23T13:19:58;29.25;;;16.20;;
76589;SDS011;65471;55.908;37.880;2024-03-23T13:22:24;29.40;;;15.45;;
76589;SDS011;65471;55.908;37.880;2024-03-23T13:24:50;22.50;;;12.38;;
76589;SDS011;65471;55.908;37.880;2024-03-23T13:27:16;26.92;;;15.88;;
76589;SDS011;65471;55.908;37.880;2024-03-23T13:29:42;34.17;;;16.08;;
76589;SDS011;65471;55.908;37.880;2024-03-23T13:32:08;24.42;;;14.70;;
76589;SDS011;65471;55.908;37.880;2024-03-23T13:34:34;30.08;;;16.17;;
76589;SDS011;65471;55.908;37.880;2024-03-23T13:37:01;30.08;;;16.60;;
76589;SDS011;65471;55.908;37.880;2024-03-23T13:39:27;28.60;;;15.65;;
76589;SDS011;65471;55.908;37.880;2024-03-23T13:41:54;21.55;;;13.30;;
76589;SDS011;65471;55.908;37.880;2024-03-23T13:44:21;28.95;;;15.32;;
76589;SDS011;65471;55.908;37.880;2024-03-23T13:46:47;44.15;;;17.63;;
76589;SDS011;65471;55.908;37.880;2024-03-23T13:49:26;35.55;;;17.73;;
76589;SDS011;65471;55.908;37.880;2024-03-23T13:51:53;30.95;;;16.35;;
76589;SDS011;65471;55.908;37.880;2024-03-23T13:54:20;46.70;;;21.65;;
76589;SDS011;65471;55.908;37.880;2024-03-23T13:56:50;48.33;;;20.15;;
76589;SDS011;65471;55.908;37.880;2024-03-23T13:59:17;42.65;;;17.98;;
76589;SDS011;65471;55.908;37.880;2024-03-23T14:01:43;29.50;;;16.13;;
76589;SDS011;65471;55.908;37.880;2024-03-23T14:04:11;28.10;;;16.57;;
76589;SDS011;65471;55.908;37.880;2024-03-23T14:06:37;28.00;;;15.50;;
76589;SDS011;65471;55.908;37.880;2024-03-23T14:09:04;43.38;;;19.52;;
76589;SDS011;65471;55.908;37.880;2024-03-23T14:11:30;48.67;;;17.77;;
76589;SDS011;65471;55.908;37.880;2024-03-23T14:13:56;36.60;;;17.30;;
76589;SDS011;65471;55.908;37.880;2024-03-23T14:16:22;41.80;;;18.95;;
76589;SDS011;65471;55.908;37.880;2024-03-23T14:18:48;39.20;;;18.88;;
76589;SDS011;65471;55.908;37.880;2024-03-23T14:21:14;43.13;;;18.95;;
76589;SDS011;65471;55.908;37.880;2024-03-23T14:23:40;40.75;;;18.42;;
76589;SDS011;65471;55.908;37.880;2024-03-23T14:26:08;38.10;;;18.63;;
76589;SDS011;65471;55.908;37.880;2024-03-23T14:28:34;40.00;;;16.73;;
76589;SDS011;65471;55.908;37.880;2024-03-23T14:31:00;43.30;;;19.23;;
76589;SDS011;65471;55.908;37.880;2024-03-23T14:33:27;23.58;;;13.55;;
76589;SDS011;65471;55.908;37.880;2024-03-23T14:35:53;37.65;;;15.38;;
76589;SDS011;65471;55.908;37.880;2024-03-23T14:38:23;28.23;;;14.80;;
76589;SDS011;65471;55.908;37.880;2024-03-23T14:40:49;25.45;;;13.82;;
76589;SDS011;65471;55.908;37.880;2024-03-23T14:43:16;24.65;;;13.68;;
76589;SDS011;65471;55.908;37.880;2024-03-23T14:51:11;19.80;;;12.57;;
76589;SDS011;65471;55.908;37.880;2024-03-23T14:53:39;27.73;;;14.80;;
76589;SDS011;65471;55.908;37.880;2024-03-23T14:56:07;28.38;;;15.15;;
76589;SDS011;65471;55.908;37.880;2024-03-23T14:58:36;17.10;;;12.55;;
76589;SDS011;65471;55.908;37.880;2024-03-23T15:01:05;36.30;;;13.75;;
76589;SDS011;65471;55.908;37.880;2024-03-23T15:03:37;23.25;;;13.73;;
76589;SDS011;65471;55.908;37.880;2024-03-23T15:06:05;21.52;;;11.82;;
76589;SDS011;65471;55.908;37.880;2024-03-23T15:08:32;26.58;;;12.90;;
76589;SDS011;65471;55.908;37.880;2024-03-23T15:11:01;17.70;;;12.13;;
76589;SDS011;65471;55.908;37.880;2024-03-23T15:13:37;17.58;;;11.52;;
76589;SDS011;65471;55.908;37.880;2024-03-23T15:16:04;19.42;;;11.77;;
76589;SDS011;65471;55.908;37.880;2024-03-23T15:18:35;22.17;;;11.97;;
76589;SDS011;65471;55.908;37.880;2024-03-23T15:21:04;20.73;;;12.02;;
76589;SDS011;65471;55.908;37.880;2024-03-23T15:23:36;21.60;;;12.73;;
76589;SDS011;65471;55.908;37.880;2024-03-23T15:26:02;17.92;;;12.10;;
76589;SDS011;65471;55.908;37.880;2024-03-23T15:28:29;16.70;;;11.13;;